Foveran, United Kingdom
Current Conditions -  °F | °C
As of 9:50 AM on Friday 31 Oct 2014 (Local Time) from EGPD Reporting Station
Scattered Clouds Scattered Clouds  
Wind Chill: 57°   Ceiling: Unl
Heat Index: 57°   Visibility: 6mi
Dew Point: 55°   Wind: 14mph
Humidity: 94%   Direction: 180°S
Pressure: 29.77"   Gusts: NA
Location:  57.31°N, 2.04°W
Report Text: EGPD 310950Z 18012KT 9999 FEW008 SCT020 14/13 Q1008 NOSIG
Loading
Personal Weather Stations






























Interactive Weather Map New forecast layout! Learn more

10-Day Weather Forecast

Advertisements
Track Severe Weather on mobile